In Rescue
 
Open Full Screen Window  High Contrast Mode
Wind Gusting 00 knots
04
September 19, 2019 3:54 PM CDT
Weather Information
Wind Direction
  140 °
Wind Speed
  04 kt (5 mph)
Wind Gust
  00 kt (0 mph)
Altimeter
29.99 in
Visibility
10 SM
Temperature
28° C
82° F
Dewpoint
19° C
66° F
Humidity
58%
1hr Rain Fall
00.00 in.
24hr Rain Fall
00.00 in.
Sky Condition
Clear
VFR

METAR KHCD 192054Z AUTO 14004KT 10SM CLR 28/19 A2999 RMK AO2 T02770190

FAA Disclaimer: The data displayed is for advisory purposes only and is not to be used for flight planning or operations.